createdAt,value
2023-01-13T00:00:34.853Z,78.94
2023-01-13T00:03:18.168Z,78.32
2023-01-13T00:06:01.627Z,78.20
2023-01-13T00:08:45.198Z,78.58
2023-01-13T00:11:28.322Z,78.30
2023-01-13T00:14:11.386Z,78.95
2023-01-13T00:16:55.949Z,78.29
2023-01-13T00:19:38.974Z,78.38
2023-01-13T00:22:22.025Z,79.06
2023-01-13T00:25:06.756Z,78.94
2023-01-13T00:27:50.120Z,78.46
2023-01-13T00:30:34.183Z,78.74
2023-01-13T00:33:18.625Z,79.02
2023-01-13T00:36:02.910Z,78.17
2023-01-13T00:38:47.830Z,78.75
2023-01-13T00:41:50.907Z,79.33
2023-01-13T00:44:32.879Z,79.27
2023-01-13T00:47:15.966Z,78.89
2023-01-13T00:50:00.408Z,78.95
2023-01-13T00:52:43.533Z,78.79
2023-01-13T00:55:26.556Z,78.80
2023-01-13T00:58:09.617Z,78.49
2023-01-13T01:00:52.796Z,78.75
2023-01-13T01:03:36.797Z,78.57
2023-01-13T01:06:24.878Z,79.04
2023-01-13T01:09:08.174Z,78.17
2023-01-13T01:11:51.202Z,78.82
2023-01-13T01:14:35.141Z,79.02
2023-01-13T01:17:18.380Z,78.75
2023-01-13T01:20:01.502Z,78.72
2023-01-13T01:22:45.995Z,79.17
2023-01-13T01:25:29.048Z,78.34
2023-01-13T01:28:12.039Z,78.60
2023-01-13T01:30:55.699Z,77.57
2023-01-13T01:33:38.724Z,78.45
2023-01-13T01:36:24.243Z,77.68
2023-01-13T01:39:08.711Z,77.46
2023-01-13T01:42:09.545Z,78.01
2023-01-13T01:45:01.927Z,78.51
2023-01-13T01:47:46.890Z,77.98
2023-01-13T01:50:30.766Z,78.56
2023-01-13T01:53:19.768Z,78.59
2023-01-13T01:56:04.827Z,78.33
2023-01-13T01:58:52.241Z,77.23
2023-01-13T02:01:35.634Z,77.53
2023-01-13T02:04:24.531Z,77.96
2023-01-13T02:07:08.441Z,78.25
2023-01-13T02:09:52.878Z,78.68
2023-01-13T02:12:38.490Z,78.50
2023-01-13T02:15:24.228Z,78.08
2023-01-13T02:18:22.194Z,78.48
2023-01-13T02:21:39.755Z,78.32
2023-01-13T02:24:54.028Z,78.35
2023-01-13T02:27:59.470Z,78.84
2023-01-13T02:31:04.597Z,78.91
2023-01-13T02:33:59.554Z,79.23
2023-01-13T02:36:52.208Z,79.11
2023-01-13T02:39:39.725Z,78.96
2023-01-13T02:42:46.006Z,78.39
2023-01-13T02:45:33.634Z,78.41
2023-01-13T02:48:20.428Z,78.31
2023-01-13T02:51:07.927Z,78.36
2023-01-13T02:53:56.511Z,78.13
2023-01-13T02:56:46.267Z,78.70
2023-01-13T02:59:32.591Z,78.74
2023-01-13T03:02:20.319Z,78.54
2023-01-13T03:05:05.705Z,79.76
2023-01-13T03:08:15.596Z,79.39
2023-01-13T03:11:05.186Z,79.00
2023-01-13T03:14:05.850Z,78.65
2023-01-13T03:17:00.932Z,78.82
2023-01-13T03:19:48.315Z,78.05
2023-01-13T03:22:41.449Z,77.87
2023-01-13T03:25:29.793Z,77.48
2023-01-13T03:28:20.404Z,78.29
2023-01-13T03:31:09.088Z,78.56
2023-01-13T03:33:57.459Z,77.73
2023-01-13T03:36:42.906Z,77.92
2023-01-13T03:39:32.928Z,77.77
2023-01-13T03:42:22.191Z,77.76
2023-01-13T03:45:10.748Z,78.43
2023-01-13T03:47:58.644Z,77.83
2023-01-13T03:50:48.694Z,78.77
2023-01-13T03:53:35.735Z,78.82
2023-01-13T03:56:30.312Z,78.92
2023-01-13T03:59:18.632Z,78.46
2023-01-13T04:02:08.125Z,78.28
2023-01-13T04:04:56.300Z,78.97
2023-01-13T04:07:51.873Z,78.13
2023-01-13T04:10:42.001Z,78.27
2023-01-13T04:13:33.423Z,77.92
2023-01-13T04:16:16.801Z,78.15
2023-01-13T04:18:59.934Z,77.44
2023-01-13T04:21:43.400Z,77.98
2023-01-13T04:24:26.713Z,77.34
2023-01-13T04:27:09.760Z,75.87
2023-01-13T04:29:54.212Z,76.27
2023-01-13T04:32:37.548Z,76.98
2023-01-13T04:35:20.606Z,75.91
2023-01-13T04:38:04.710Z,75.33
2023-01-13T04:40:47.996Z,75.65
2023-01-13T04:43:31.038Z,74.66
2023-01-13T04:46:16.195Z,75.40
2023-01-13T04:48:59.266Z,75.59
2023-01-13T04:51:42.451Z,76.17
2023-01-13T04:54:25.760Z,76.02
2023-01-13T04:57:09.045Z,76.20
2023-01-13T04:59:52.118Z,76.26
2023-01-13T05:02:37.060Z,76.08
2023-01-13T05:05:20.422Z,76.07
2023-01-13T05:08:03.535Z,76.45
2023-01-13T05:10:46.572Z,76.35
2023-01-13T05:13:46.758Z,76.46
2023-01-13T05:16:47.421Z,75.66
2023-01-13T05:19:34.043Z,76.04
2023-01-13T05:22:34.643Z,75.37
2023-01-13T05:25:25.327Z,74.43
2023-01-13T05:28:09.367Z,74.45
2023-01-13T05:30:52.633Z,74.89
2023-01-13T05:33:36.068Z,74.81
2023-01-13T05:36:20.631Z,76.56
2023-01-13T05:39:03.739Z,76.17
2023-01-13T05:42:04.482Z,75.59
2023-01-13T05:44:47.568Z,75.56
2023-01-13T05:47:30.655Z,75.27
2023-01-13T05:50:13.992Z,75.66
2023-01-13T05:52:58.674Z,75.32
2023-01-13T05:55:42.417Z,75.29
2023-01-13T05:58:28.368Z,75.23
2023-01-13T06:01:11.543Z,75.55
2023-01-13T06:03:54.698Z,74.92
2023-01-13T06:06:37.746Z,75.50
2023-01-13T06:09:22.832Z,75.00
2023-01-13T06:12:06.698Z,75.20
2023-01-13T06:14:49.797Z,75.57
2023-01-13T06:17:33.005Z,76.02
2023-01-13T06:20:17.111Z,76.13
2023-01-13T06:23:01.044Z,76.74
2023-01-13T06:25:51.229Z,76.81
2023-01-13T06:28:34.983Z,75.77
2023-01-13T06:31:18.344Z,77.08
2023-01-13T06:34:06.058Z,77.03
2023-01-13T06:36:53.589Z,77.15
2023-01-13T06:39:36.918Z,77.64
2023-01-13T06:42:38.954Z,76.46
2023-01-13T06:45:23.086Z,76.87
2023-01-13T06:48:06.897Z,76.61
2023-01-13T06:50:51.052Z,75.54
2023-01-13T06:53:34.238Z,75.32
2023-01-13T06:56:18.317Z,74.75
2023-01-13T06:59:02.848Z,74.88
2023-01-13T07:01:46.231Z,74.96
2023-01-13T07:04:29.602Z,74.13
2023-01-13T07:07:13.207Z,74.27
2023-01-13T07:09:56.333Z,73.79
2023-01-13T07:12:59.902Z,73.04
2023-01-13T07:15:53.222Z,72.52
2023-01-13T07:18:37.630Z,73.17
2023-01-13T07:21:21.263Z,71.94
2023-01-13T07:24:05.374Z,70.54
2023-01-13T07:26:48.391Z,71.56
2023-01-13T07:29:31.580Z,69.69
2023-01-13T07:32:16.655Z,69.90
2023-01-13T07:35:04.843Z,68.00
2023-01-13T07:37:49.934Z,66.87
2023-01-13T07:40:33.497Z,66.90
2023-01-13T07:43:33.922Z,66.63
2023-01-13T07:46:17.153Z,65.28
2023-01-13T07:49:02.192Z,64.32
2023-01-13T07:51:48.246Z,62.86
2023-01-13T07:54:40.199Z,60.90
2023-01-13T07:57:23.973Z,59.74
2023-01-13T08:00:08.192Z,60.83
2023-01-13T08:02:51.603Z,59.81
2023-01-13T08:05:37.426Z,59.15
2023-01-13T08:08:20.658Z,58.43
2023-01-13T08:11:06.773Z,58.59
2023-01-13T08:13:49.928Z,56.16
2023-01-13T08:16:35.300Z,55.03
2023-01-13T08:19:18.665Z,55.52
2023-01-13T08:22:03.403Z,52.94
2023-01-13T08:24:46.583Z,51.73
2023-01-13T08:27:29.694Z,48.14
2023-01-13T08:30:13.348Z,38.57
2023-01-13T08:32:56.507Z,36.28
2023-01-13T08:35:39.936Z,36.30
2023-01-13T08:38:25.144Z,35.23
2023-01-13T08:41:12.028Z,33.82
2023-01-13T08:43:55.180Z,30.83
2023-01-13T08:46:42.167Z,31.07
2023-01-13T08:49:26.331Z,31.21
2023-01-13T08:52:09.714Z,29.10
2023-01-13T08:54:54.279Z,27.27
2023-01-13T08:57:37.490Z,29.18
2023-01-13T09:00:23.685Z,32.53
2023-01-13T09:03:06.804Z,32.59
2023-01-13T09:05:50.066Z,34.79
2023-01-13T09:08:33.239Z,34.46
2023-01-13T09:11:40.159Z,33.90
2023-01-13T09:14:26.775Z,34.61
2023-01-13T09:17:10.077Z,36.86
2023-01-13T09:19:53.201Z,38.23
2023-01-13T09:22:37.776Z,39.42
2023-01-13T09:25:24.054Z,41.21
2023-01-13T09:28:09.720Z,41.34
2023-01-13T09:30:54.396Z,41.65
2023-01-13T09:33:54.807Z,42.58
2023-01-13T09:36:37.894Z,42.41
2023-01-13T09:39:22.518Z,43.86
2023-01-13T09:42:32.068Z,44.76
2023-01-13T09:45:20.488Z,46.25
2023-01-13T09:48:10.059Z,48.20
2023-01-13T09:51:01.949Z,48.59
2023-01-13T09:53:49.934Z,50.64
2023-01-13T09:56:33.081Z,51.06
2023-01-13T09:59:17.365Z,51.01
2023-01-13T10:02:14.902Z,50.93
2023-01-13T10:05:07.399Z,52.21
2023-01-13T10:07:53.398Z,52.81
2023-01-13T10:10:43.176Z,52.71
2023-01-13T10:13:27.760Z,52.54
2023-01-13T10:16:25.325Z,51.24
2023-01-13T10:19:17.387Z,50.70
2023-01-13T10:22:17.185Z,50.15
2023-01-13T10:25:20.644Z,50.72
2023-01-13T10:28:11.638Z,51.63
2023-01-13T10:30:54.882Z,53.38
2023-01-13T10:33:38.285Z,53.16
2023-01-13T10:36:23.385Z,53.97
2023-01-13T10:39:11.371Z,53.46
2023-01-13T10:42:03.975Z,53.39
2023-01-13T10:44:52.595Z,55.01
2023-01-13T10:47:37.283Z,54.63
2023-01-13T10:50:25.479Z,54.58
2023-01-13T10:53:23.827Z,54.55
2023-01-13T10:56:07.297Z,55.22
2023-01-13T10:58:50.461Z,53.66
2023-01-13T11:01:34.002Z,53.80
2023-01-13T11:04:40.751Z,54.94
2023-01-13T11:07:31.328Z,54.29
2023-01-13T11:10:24.693Z,53.42
2023-01-13T11:13:14.820Z,55.10
2023-01-13T11:16:03.494Z,55.97
2023-01-13T11:19:02.579Z,56.39
2023-01-13T11:21:53.306Z,57.02
2023-01-13T11:24:40.526Z,57.37
2023-01-13T11:27:31.430Z,59.38
2023-01-13T11:30:31.620Z,59.25
2023-01-13T11:33:32.054Z,59.34
2023-01-13T11:36:20.576Z,58.59
2023-01-13T11:39:17.951Z,57.67
2023-01-13T11:42:24.333Z,56.37
2023-01-13T11:45:19.813Z,55.81
2023-01-13T11:48:03.822Z,55.02
2023-01-13T11:50:54.008Z,54.71
2023-01-13T11:53:53.073Z,56.00
2023-01-13T11:56:55.297Z,55.34
2023-01-13T11:59:59.965Z,55.06
2023-01-13T12:02:53.900Z,55.58
2023-01-13T12:05:39.756Z,55.40
2023-01-13T12:08:35.567Z,55.67
2023-01-13T12:11:26.741Z,54.68
2023-01-13T12:14:21.311Z,56.03
2023-01-13T12:17:12.786Z,56.06
2023-01-13T12:19:57.519Z,58.15
2023-01-13T12:22:42.419Z,56.51
2023-01-13T12:25:33.779Z,57.08
2023-01-13T12:28:21.894Z,55.95
2023-01-13T12:31:05.334Z,56.56
2023-01-13T12:34:00.629Z,55.42
2023-01-13T12:36:58.401Z,55.74
2023-01-13T12:39:51.581Z,55.66
2023-01-13T12:43:00.047Z,54.40
2023-01-13T12:45:44.667Z,53.05
2023-01-13T12:48:49.451Z,53.77
2023-01-13T12:51:35.771Z,53.09
2023-01-13T12:55:17.753Z,54.99
2023-01-13T12:58:16.515Z,54.55
2023-01-13T13:01:09.691Z,55.99
2023-01-13T13:04:10.538Z,55.86
2023-01-13T13:07:05.656Z,56.84
2023-01-13T13:09:54.539Z,57.13
2023-01-13T13:13:12.452Z,57.12
2023-01-13T13:16:36.340Z,57.94
2023-01-13T13:19:48.193Z,58.54
2023-01-13T13:22:45.969Z,59.92
2023-01-13T13:25:30.822Z,60.04
2023-01-13T13:28:25.122Z,60.68
2023-01-13T13:31:31.529Z,61.33
2023-01-13T13:34:26.292Z,61.06
2023-01-13T13:37:32.771Z,61.86
2023-01-13T13:40:34.588Z,62.56
2023-01-13T13:43:39.183Z,62.52
2023-01-13T13:46:45.665Z,62.04
2023-01-13T13:49:39.795Z,61.91
2023-01-13T13:52:26.839Z,62.67
2023-01-13T13:55:18.746Z,62.07
2023-01-13T13:58:02.736Z,62.96
2023-01-13T14:00:49.336Z,62.24
2023-01-13T14:03:37.809Z,61.85
2023-01-13T14:06:25.335Z,61.56
2023-01-13T14:09:18.070Z,62.53
2023-01-13T14:12:03.969Z,62.21
2023-01-13T14:14:48.322Z,62.13
2023-01-13T14:17:32.981Z,62.23
2023-01-13T14:20:19.754Z,61.72
2023-01-13T14:23:05.469Z,62.28
2023-01-13T14:25:50.016Z,63.01
2023-01-13T14:28:36.770Z,61.76
2023-01-13T14:31:22.842Z,61.82
2023-01-13T14:34:31.068Z,61.59
2023-01-13T14:37:26.291Z,62.18
2023-01-13T14:40:49.539Z,61.03
2023-01-13T14:43:32.672Z,60.96
2023-01-13T14:46:17.713Z,60.89
2023-01-13T14:49:02.496Z,60.90
2023-01-13T14:51:46.985Z,61.05
2023-01-13T14:54:48.757Z,61.38
2023-01-13T14:57:33.656Z,61.82
2023-01-13T15:00:23.674Z,61.92
2023-01-13T15:03:08.932Z,61.71
2023-01-13T15:05:53.749Z,61.99
2023-01-13T15:08:40.473Z,61.84
2023-01-13T15:11:26.174Z,62.21
2023-01-13T15:14:12.216Z,62.52
2023-01-13T15:16:55.263Z,62.54
2023-01-13T15:19:38.291Z,62.52
2023-01-13T15:22:21.387Z,62.60
2023-01-13T15:25:06.848Z,62.64
2023-01-13T15:27:53.417Z,62.44
2023-01-13T15:30:36.546Z,64.52
2023-01-13T15:33:20.808Z,63.91
2023-01-13T15:36:04.548Z,63.37
2023-01-13T15:38:47.657Z,63.46
2023-01-13T15:41:49.786Z,63.20
2023-01-13T15:44:50.862Z,63.48
2023-01-13T15:47:34.205Z,63.87
2023-01-13T15:50:20.953Z,64.11
2023-01-13T15:53:04.168Z,64.05
2023-01-13T15:55:50.589Z,64.42
2023-01-13T15:58:35.074Z,64.95
2023-01-13T16:01:21.058Z,63.55
2023-01-13T16:04:07.427Z,63.61
2023-01-13T16:06:50.574Z,63.79
2023-01-13T16:09:33.622Z,65.77
2023-01-13T16:12:16.972Z,64.20
2023-01-13T16:15:01.770Z,65.17
2023-01-13T16:17:46.300Z,64.38
2023-01-13T16:20:29.847Z,64.40
2023-01-13T16:23:13.386Z,64.50
2023-01-13T16:25:56.489Z,64.17
2023-01-13T16:28:39.751Z,64.43
2023-01-13T16:31:30.795Z,64.44
2023-01-13T16:34:14.029Z,65.33
2023-01-13T16:36:57.096Z,64.86
2023-01-13T16:39:40.206Z,65.19
2023-01-13T16:42:23.741Z,64.80
2023-01-13T16:45:09.732Z,64.53
2023-01-13T16:47:54.711Z,64.20
2023-01-13T16:50:41.730Z,64.24
2023-01-13T16:53:25.411Z,64.47
2023-01-13T16:56:20.531Z,64.71
2023-01-13T16:59:08.627Z,64.51
2023-01-13T17:01:52.343Z,65.29
2023-01-13T17:04:37.251Z,65.99
2023-01-13T17:07:20.615Z,67.47
2023-01-13T17:10:04.232Z,67.78
2023-01-13T17:12:47.443Z,68.61
2023-01-13T17:15:30.785Z,68.82
2023-01-13T17:18:14.657Z,69.31
2023-01-13T17:21:00.150Z,68.91
2023-01-13T17:23:43.637Z,68.76
2023-01-13T17:26:32.406Z,68.40
2023-01-13T17:29:17.345Z,70.32
2023-01-13T17:32:01.550Z,70.50
2023-01-13T17:34:45.220Z,70.46
2023-01-13T17:37:29.739Z,69.42
2023-01-13T17:40:14.156Z,68.84
2023-01-13T17:42:57.539Z,69.18
2023-01-13T17:45:42.946Z,69.52
2023-01-13T17:48:26.566Z,71.00
2023-01-13T17:51:16.656Z,72.31
2023-01-13T17:54:01.163Z,71.09
2023-01-13T17:56:44.854Z,70.07
2023-01-13T17:59:28.026Z,69.03
2023-01-13T18:02:13.846Z,69.41
2023-01-13T18:04:57.167Z,68.80
2023-01-13T18:07:40.512Z,68.85
2023-01-13T18:10:25.743Z,69.00
2023-01-13T18:13:10.071Z,69.14
2023-01-13T18:16:01.930Z,69.27
2023-01-13T18:18:47.048Z,70.27
2023-01-13T18:21:47.681Z,71.49
2023-01-13T18:24:48.247Z,72.00
2023-01-13T18:27:35.678Z,71.63
2023-01-13T18:30:19.069Z,71.46
2023-01-13T18:33:03.467Z,70.09
2023-01-13T18:35:47.055Z,70.19
2023-01-13T18:38:30.207Z,70.97
2023-01-13T18:41:27.863Z,72.04
2023-01-13T18:44:12.798Z,71.32
2023-01-13T18:46:56.034Z,71.28
2023-01-13T18:49:39.520Z,70.42
2023-01-13T18:52:24.293Z,72.11
2023-01-13T18:55:08.284Z,71.12
2023-01-13T18:57:52.324Z,70.71
2023-01-13T19:00:38.109Z,72.37
2023-01-13T19:03:30.056Z,71.50
2023-01-13T19:06:14.024Z,71.10
2023-01-13T19:08:58.302Z,73.06
2023-01-13T19:11:42.550Z,72.34
2023-01-13T19:14:38.365Z,71.11
2023-01-13T19:17:25.426Z,71.33
2023-01-13T19:20:11.539Z,73.14
2023-01-13T19:22:56.029Z,73.15
2023-01-13T19:25:39.276Z,72.20
2023-01-13T19:28:23.251Z,71.60
2023-01-13T19:31:08.364Z,71.22
2023-01-13T19:33:53.068Z,71.64
2023-01-13T19:36:36.382Z,71.74
2023-01-13T19:39:19.833Z,71.57
2023-01-13T19:42:25.112Z,71.82
2023-01-13T19:45:28.344Z,73.00
2023-01-13T19:48:12.737Z,72.85
2023-01-13T19:50:57.560Z,73.15
2023-01-13T19:53:40.782Z,73.21
2023-01-13T19:56:25.173Z,73.32
2023-01-13T19:59:09.515Z,75.14
2023-01-13T20:01:52.774Z,74.25
2023-01-13T20:04:39.416Z,73.67
2023-01-13T20:07:26.663Z,74.10
2023-01-13T20:10:10.930Z,73.28
2023-01-13T20:12:54.382Z,72.70
2023-01-13T20:15:40.166Z,72.04
2023-01-13T20:18:23.734Z,71.95
2023-01-13T20:21:08.542Z,72.25
2023-01-13T20:24:01.879Z,72.82
2023-01-13T20:26:45.788Z,72.68
2023-01-13T20:29:30.381Z,72.27
2023-01-13T20:32:13.541Z,72.63
2023-01-13T20:34:56.716Z,72.56
2023-01-13T20:37:40.649Z,72.69
2023-01-13T20:40:25.770Z,72.47
2023-01-13T20:43:08.187Z,72.35
2023-01-13T20:45:51.788Z,73.68
2023-01-13T20:48:34.873Z,72.81
2023-01-13T20:51:18.500Z,72.27
2023-01-13T20:54:01.726Z,71.82
2023-01-13T20:56:46.778Z,72.01
2023-01-13T20:59:29.871Z,72.34
2023-01-13T21:02:14.918Z,72.74
2023-01-13T21:04:59.156Z,72.58
2023-01-13T21:07:43.584Z,72.81
2023-01-13T21:10:26.687Z,73.04
2023-01-13T21:13:29.801Z,73.47
2023-01-13T21:16:12.980Z,74.31
2023-01-13T21:19:07.197Z,74.48
2023-01-13T21:21:50.323Z,76.44
2023-01-13T21:24:33.440Z,75.50
2023-01-13T21:27:16.699Z,75.07
2023-01-13T21:30:04.138Z,75.01
2023-01-13T21:32:47.845Z,74.40
2023-01-13T21:35:30.947Z,74.42
2023-01-13T21:38:13.982Z,74.49
2023-01-13T21:40:59.825Z,73.74
2023-01-13T21:44:00.115Z,74.33
2023-01-13T21:47:02.006Z,75.86
2023-01-13T21:49:45.171Z,76.20
2023-01-13T21:52:28.493Z,75.95
2023-01-13T21:55:20.437Z,75.98
2023-01-13T21:58:10.671Z,75.04
2023-01-13T22:00:54.312Z,74.82
2023-01-13T22:03:53.307Z,77.11
2023-01-13T22:06:36.368Z,77.43
2023-01-13T22:09:19.628Z,77.51
2023-01-13T22:12:02.722Z,76.66
2023-01-13T22:14:45.739Z,76.86
2023-01-13T22:17:31.653Z,77.47
2023-01-13T22:20:17.055Z,75.61
2023-01-13T22:23:00.381Z,75.77
2023-01-13T22:25:43.388Z,75.55
2023-01-13T22:28:34.205Z,75.18
2023-01-13T22:31:19.630Z,74.56
2023-01-13T22:34:02.672Z,74.53
2023-01-13T22:36:47.197Z,74.51
2023-01-13T22:39:30.516Z,74.75
2023-01-13T22:42:13.584Z,76.20
2023-01-13T22:44:56.918Z,75.39
2023-01-13T22:47:40.519Z,75.81
2023-01-13T22:50:23.606Z,75.85
2023-01-13T22:53:08.040Z,75.10
2023-01-13T22:55:58.039Z,74.87
2023-01-13T22:58:41.066Z,75.05
2023-01-13T23:01:25.002Z,74.43
2023-01-13T23:04:08.242Z,74.60
2023-01-13T23:06:51.715Z,74.92
2023-01-13T23:09:36.502Z,74.90
2023-01-13T23:12:19.821Z,74.19
2023-01-13T23:15:02.845Z,73.68
2023-01-13T23:17:45.868Z,74.00
2023-01-13T23:20:28.935Z,73.89
2023-01-13T23:23:12.266Z,74.77
2023-01-13T23:25:57.133Z,75.95
2023-01-13T23:28:40.658Z,75.14
2023-01-13T23:31:23.833Z,75.11
2023-01-13T23:34:06.934Z,74.69
2023-01-13T23:36:50.080Z,74.74
2023-01-13T23:39:33.175Z,75.50
2023-01-13T23:42:19.488Z,75.86
2023-01-13T23:45:02.480Z,75.98
2023-01-13T23:47:45.565Z,75.61
2023-01-13T23:50:28.610Z,74.79
2023-01-13T23:53:11.891Z,74.83
2023-01-13T23:55:58.298Z,75.70
2023-01-13T23:58:43.520Z,77.35
